Time;durP1;ratioP1;P1;durP2;ratioP2;P2;SDS_P1;SDS_P2;PMS_P1;PMS_P2;Temp;Humidity;BMP_temperature;BMP_pressure;BME280_temperature;BME280_humidity;BME280_pressure;Samples;Min_cycle;Max_cycle;Signal;HPM_P1;HPM_P2
2021/03/08 00:00:54;;;;;;;;;;;;;;;1.19;100.00;98672.11;1811531;79;20125;-72
2021/03/08 00:03:23;;;;;;;;;;;;;;;1.22;100.00;98659.78;1811685;79;20129;-71
2021/03/08 00:05:54;;;;;;;;;;;;;;;1.14;100.00;98664.02;1811577;79;21794;-72
2021/03/08 00:08:22;;;;;;;;;;;;;;;1.10;100.00;98639.55;1811488;79;20129;-72
2021/03/08 00:10:51;;;;;;;;;;;;;;;1.07;100.00;98649.52;1811508;79;20141;-72
2021/03/08 00:13:20;;;;;;;;;;;;;;;1.07;100.00;98644.23;1811572;79;20137;-72
2021/03/08 00:15:50;;;;;;;;;;;;;;;1.17;100.00;98644.28;1811499;79;20141;-72
2021/03/08 00:18:18;;;;;;;;;;;;;;;1.16;100.00;98636.87;1811581;79;22099;-72
2021/03/08 00:20:48;;;;;;;;;;;;;;;1.21;100.00;98633.58;1811452;79;20201;-72
2021/03/08 00:23:15;;;;;;;;;;;;;;;1.15;100.00;98633.94;1811667;79;20141;-72
2021/03/08 00:25:45;;;;;;;;;;;;;;;1.17;100.00;98629.73;1811472;79;20141;-73
2021/03/08 00:28:14;;;;;;;;;;;;;;;1.09;100.00;98618.92;1811618;79;20157;-72
2021/03/08 00:30:42;;;;;;;;;;;;;;;1.16;100.00;98619.69;1811636;79;20890;-71
2021/03/08 00:33:12;;;;;;;;;;;;;;;1.14;100.00;98613.80;1811518;79;20121;-71
2021/03/08 00:35:41;;;;;;;;;;;;;;;1.07;100.00;98603.79;1811623;79;20507;-72
2021/03/08 00:38:09;;;;;;;;;;;;;;;1.04;100.00;98558.78;1811523;79;20398;-72
2021/03/08 00:40:42;;;;;;;;;;;;;;;1.12;100.00;98596.02;1811352;78;20225;-72
2021/03/08 00:43:10;;;;;;;;;;;;;;;0.94;100.00;98590.17;1811546;79;21626;-72
2021/03/08 00:45:41;;;;;;;;;;;;;;;1.15;100.00;98598.75;1811449;79;20503;-71
2021/03/08 00:48:22;;;;;;;;;;;;;;;1.20;100.00;98594.94;1811603;79;20137;-71
2021/03/08 00:50:51;;;;;;;;;;;;;;;1.12;100.00;98588.09;1811560;79;20162;-70
2021/03/08 00:53:21;;;;;;;;;;;;;;;1.19;100.00;98590.17;1811577;79;20515;-70
2021/03/08 00:55:52;;;;;;;;;;;;;;;1.03;100.00;98582.28;1811440;79;21203;-72
2021/03/08 00:58:20;;;;;;;;;;;;;;;1.04;100.00;98585.21;1811587;79;20182;-71
2021/03/08 01:00:49;;;;;;;;;;;;;;;1.04;100.00;98585.73;1811559;79;20508;-71
2021/03/08 01:03:16;;;;;;;;;;;;;;;1.14;100.00;98591.33;1811523;79;20141;-71
2021/03/08 01:05:48;;;;;;;;;;;;;;;1.04;100.00;98572.52;1785416;79;20213;-72
2021/03/08 01:08:18;;;;;;;;;;;;;;;1.04;100.00;98582.56;1809668;79;21151;-71
2021/03/08 01:10:45;;;;;;;;;;;;;;;0.99;100.00;98569.72;1811430;79;20149;-72
2021/03/08 01:13:18;;;;;;;;;;;;;;;1.06;100.00;98580.52;1811357;79;20539;-71
2021/03/08 01:15:50;;;;;;;;;;;;;;;1.07;100.00;98575.52;1811471;79;20280;-72
2021/03/08 01:18:19;;;;;;;;;;;;;;;1.04;100.00;98561.95;1811675;79;20216;-72
2021/03/08 01:20:47;;;;;;;;;;;;;;;1.07;100.00;98563.62;1811509;79;21254;-72
2021/03/08 01:23:15;;;;;;;;;;;;;;;1.01;100.00;98565.83;1811452;79;20118;-72
2021/03/08 01:25:42;;;;;;;;;;;;;;;1.03;100.00;98566.42;1811651;79;20217;-71
2021/03/08 01:28:12;;;;;;;;;;;;;;;1.11;100.00;98561.89;1811604;79;20928;-72
2021/03/08 01:30:43;;;;;;;;;;;;;;;0.85;100.00;98548.66;1811715;79;20145;-72
2021/03/08 01:33:12;;;;;;;;;;;;;;;0.93;100.00;98562.63;1811703;79;21267;-72
2021/03/08 01:35:40;;;;;;;;;;;;;;;1.00;100.00;98557.59;1811693;79;20605;-71
2021/03/08 01:38:08;;;;;;;;;;;;;;;1.01;100.00;98559.22;1811662;79;20161;-71
2021/03/08 01:40:38;;;;;;;;;;;;;;;0.84;100.00;98560.78;1811428;79;20253;-71
2021/03/08 01:43:08;;;;;;;;;;;;;;;0.94;100.00;98555.82;1811749;79;20507;-71
2021/03/08 01:45:35;;;;;;;;;;;;;;;0.99;100.00;98557.30;1811644;79;21243;-72
2021/03/08 01:48:04;;;;;;;;;;;;;;;0.95;100.00;98554.78;1811663;79;20152;-71
2021/03/08 01:50:40;;;;;;;;;;;;;;;0.97;100.00;98559.86;1811736;79;20520;-72
2021/03/08 01:53:09;;;;;;;;;;;;;;;0.95;100.00;98555.30;1811527;79;20168;-71
2021/03/08 01:55:38;;;;;;;;;;;;;;;0.90;100.00;98562.55;1811598;79;20291;-72
2021/03/08 01:58:06;;;;;;;;;;;;;;;0.92;100.00;98561.02;1811671;79;21203;-73
2021/03/08 02:00:36;;;;;;;;;;;;;;;0.92;100.00;98559.19;1811530;79;20515;-74
2021/03/08 02:03:04;;;;;;;;;;;;;;;0.85;100.00;98555.78;1811690;79;20133;-72
2021/03/08 02:05:35;;;;;;;;;;;;;;;0.90;100.00;98545.37;1811607;79;20495;-71
2021/03/08 02:08:05;;;;;;;;;;;;;;;0.92;100.00;98557.86;1811069;79;20212;-72
2021/03/08 02:10:35;;;;;;;;;;;;;;;0.82;100.00;98554.91;1811653;79;21154;-72
2021/03/08 02:13:24;;;;;;;;;;;;;;;0.80;100.00;98551.66;1811583;79;20149;-72
2021/03/08 02:16:04;;;;;;;;;;;;;;;0.85;100.00;98555.27;1811619;79;20153;-71
2021/03/08 02:18:37;;;;;;;;;;;;;;;0.88;100.00;98556.67;1811608;79;20149;-72
2021/03/08 02:21:25;;;;;;;;;;;;;;;0.64;100.00;98552.48;1811595;79;20208;-72
2021/03/08 02:24:15;;;;;;;;;;;;;;;0.64;100.00;98541.92;1811647;79;21706;-71
2021/03/08 02:26:51;;;;;;;;;;;;;;;0.83;100.00;98551.22;1811652;79;20638;-71
2021/03/08 02:29:35;;;;;;;;;;;;;;;0.77;100.00;98550.26;1811623;79;20157;-72
2021/03/08 02:32:07;;;;;;;;;;;;;;;0.80;100.00;98556.95;1811578;79;20157;-72
2021/03/08 02:35:05;;;;;;;;;;;;;;;0.88;100.00;98561.15;1811687;79;20126;-72
2021/03/08 02:37:41;;;;;;;;;;;;;;;0.82;100.00;98555.70;1811645;79;21131;-72
2021/03/08 02:40:14;;;;;;;;;;;;;;;0.77;100.00;98556.86;1811676;78;20149;-72
2021/03/08 02:42:41;;;;;;;;;;;;;;;0.80;100.00;98559.59;1822297;78;20154;-72
2021/03/08 02:45:11;;;;;;;;;;;;;;;0.79;100.00;98556.66;1822116;78;20886;-71
2021/03/08 02:47:42;;;;;;;;;;;;;;;0.86;100.00;98557.42;1822064;78;20496;-73
2021/03/08 02:50:11;;;;;;;;;;;;;;;0.88;100.00;98557.98;1822057;78;22134;-74
2021/03/08 02:52:41;;;;;;;;;;;;;;;0.67;100.00;98517.44;1821909;78;20136;-72
2021/03/08 02:55:11;;;;;;;;;;;;;;;0.66;100.00;98553.58;1821926;78;20251;-72
2021/03/08 02:57:40;;;;;;;;;;;;;;;0.75;100.00;98548.86;1821807;78;20168;-73
2021/03/08 03:00:11;;;;;;;;;;;;;;;0.81;100.00;98555.94;1821965;78;20204;-71
2021/03/08 03:02:39;;;;;;;;;;;;;;;0.56;100.00;98542.68;1723088;82;21261;-72
2021/03/08 03:05:12;;;;;;;;;;;;;;;2.44;100.00;98555.11;1785970;80;20202;-72
2021/03/08 03:07:44;;;;;;;;;;;;;;;1.38;100.00;98548.72;1711508;83;20221;-72
2021/03/08 03:10:12;;;;;;;;;;;;;;;1.33;100.00;98549.89;1761358;81;20141;-70
2021/03/08 03:12:41;;;;;;;;;;;;;;;1.19;100.00;98562.94;1761424;81;20145;-73
2021/03/08 03:15:10;;;;;;;;;;;;;;;1.05;100.00;98559.59;1761462;81;21217;-72
2021/03/08 03:17:39;;;;;;;;;;;;;;;0.94;100.00;98558.98;1761353;81;20204;-71
2021/03/08 03:20:10;;;;;;;;;;;;;;;1.03;100.00;98558.50;1761408;81;20184;-73
2021/03/08 03:22:40;;;;;;;;;;;;;;;1.15;100.00;98561.73;1761476;81;20184;-71
2021/03/08 03:25:12;;;;;;;;;;;;;;;1.05;100.00;98563.55;1761406;81;20245;-70
2021/03/08 03:27:40;;;;;;;;;;;;;;;0.94;100.00;98565.59;1761515;81;22130;-72
2021/03/08 03:30:10;;;;;;;;;;;;;;;0.97;100.00;98546.14;1761378;81;20153;-72
2021/03/08 03:32:39;;;;;;;;;;;;;;;1.20;100.00;98568.50;1761403;81;20126;-71
2021/03/08 03:35:08;;;;;;;;;;;;;;;1.12;100.00;98568.78;1761362;81;20113;-71
2021/03/08 03:37:36;;;;;;;;;;;;;;;0.95;100.00;98558.75;1706193;81;20134;-71
2021/03/08 03:40:05;;;;;;;;;;;;;;;0.73;100.00;98548.26;1761390;81;22304;-71
2021/03/08 03:42:33;;;;;;;;;;;;;;;1.01;100.00;98567.15;1729578;81;20877;-72
2021/03/08 03:45:18;;;;;;;;;;;;;;;0.95;100.00;98571.16;1761423;81;20145;-71
2021/03/08 03:47:46;;;;;;;;;;;;;;;1.02;100.00;98572.72;1756652;81;20252;-72
2021/03/08 03:50:17;;;;;;;;;;;;;;;0.93;100.00;98566.11;1756948;81;20807;-72
2021/03/08 03:52:45;;;;;;;;;;;;;;;1.00;100.00;98565.52;1756958;81;21447;-72
2021/03/08 03:55:17;;;;;;;;;;;;;;;0.88;100.00;98563.27;1756775;81;20122;-72
2021/03/08 03:57:48;;;;;;;;;;;;;;;0.72;100.00;98569.91;1756904;81;20145;-72
2021/03/08 04:00:19;;;;;;;;;;;;;;;0.58;100.00;98566.53;1755907;81;20236;-72
2021/03/08 04:02:58;;;;;;;;;;;;;;;0.61;100.00;98558.70;1756848;80;20515;-71
2021/03/08 04:05:27;;;;;;;;;;;;;;;0.59;100.00;98564.73;1756870;81;21792;-70
2021/03/08 04:07:56;;;;;;;;;;;;;;;0.72;100.00;98570.42;1756833;81;20252;-71
2021/03/08 04:10:25;;;;;;;;;;;;;;;0.52;100.00;98559.48;1756975;81;20531;-71
2021/03/08 04:12:55;;;;;;;;;;;;;;;0.68;100.00;98560.78;1785634;80;20119;-71
2021/03/08 04:15:22;;;;;;;;;;;;;;;0.69;100.00;98557.66;1793261;80;20550;-71
2021/03/08 04:17:50;;;;;;;;;;;;;;;0.55;100.00;98566.97;1793194;80;21655;-71
2021/03/08 04:20:18;;;;;;;;;;;;;;;0.63;100.00;98565.89;1793150;80;20304;-71
2021/03/08 04:22:52;;;;;;;;;;;;;;;0.72;100.00;98567.78;1793214;80;20147;-71
2021/03/08 04:25:21;;;;;;;;;;;;;;;0.65;100.00;98561.22;1793058;80;20146;-71
2021/03/08 04:27:49;;;;;;;;;;;;;;;0.60;100.00;98556.57;1793185;80;20278;-71
2021/03/08 04:30:18;;;;;;;;;;;;;;;0.60;100.00;98551.80;1793315;80;22161;-72
2021/03/08 04:32:52;;;;;;;;;;;;;;;0.68;100.00;98563.94;1793114;80;20739;-71
2021/03/08 04:35:23;;;;;;;;;;;;;;;0.77;100.00;98566.11;1793133;80;20223;-71
2021/03/08 04:37:52;;;;;;;;;;;;;;;0.71;100.00;98575.39;1793217;80;20222;-72
2021/03/08 04:40:20;;;;;;;;;;;;;;;0.78;100.00;98571.67;1793114;80;20119;-70
2021/03/08 04:42:48;;;;;;;;;;;;;;;0.72;100.00;98573.06;1793174;80;21665;-71
2021/03/08 04:45:18;;;;;;;;;;;;;;;0.62;100.00;98582.78;1793166;80;20486;-73
2021/03/08 04:47:47;;;;;;;;;;;;;;;0.46;100.00;98589.36;1792512;80;20225;-72
2021/03/08 04:50:16;;;;;;;;;;;;;;;0.35;100.00;98597.96;1793418;80;20218;-71
2021/03/08 04:52:46;;;;;;;;;;;;;;;0.45;100.00;98601.47;1793527;80;20241;-71
2021/03/08 04:55:14;;;;;;;;;;;;;;;0.25;100.00;98605.53;1793529;80;22206;-71
2021/03/08 04:57:43;;;;;;;;;;;;;;;0.45;100.00;98612.83;1793408;80;20218;-71
2021/03/08 05:00:13;;;;;;;;;;;;;;;0.14;100.00;98599.06;1793471;80;20143;-72
2021/03/08 05:02:42;;;;;;;;;;;;;;;0.09;100.00;98599.69;1793764;80;20222;-72
2021/03/08 05:05:13;;;;;;;;;;;;;;;0.01;100.00;98617.08;1793392;79;20158;-72
2021/03/08 05:07:42;;;;;;;;;;;;;;;-0.03;96.54;98622.45;1793220;80;22260;-73
2021/03/08 05:10:11;;;;;;;;;;;;;;;-0.08;94.17;98625.72;1793674;80;20980;-71
2021/03/08 05:12:40;;;;;;;;;;;;;;;-0.22;95.05;98629.43;1793598;80;20246;-72
2021/03/08 05:15:10;;;;;;;;;;;;;;;-0.28;94.33;98630.23;1793733;80;20675;-71
2021/03/08 05:17:38;;;;;;;;;;;;;;;-0.41;94.41;98635.55;1793686;80;20489;-71
2021/03/08 05:20:09;;;;;;;;;;;;;;;-0.35;93.72;98632.88;1793617;80;21431;-71
2021/03/08 05:22:37;;;;;;;;;;;;;;;-0.41;95.44;98637.67;1793713;80;20573;-72
2021/03/08 05:25:06;;;;;;;;;;;;;;;-0.40;95.62;98643.75;1793559;80;20139;-72
2021/03/08 05:27:34;;;;;;;;;;;;;;;-0.35;94.20;98636.84;1793543;80;20142;-72
2021/03/08 05:30:06;;;;;;;;;;;;;;;-0.44;95.20;98644.16;1793684;80;20151;-71
2021/03/08 05:32:39;;;;;;;;;;;;;;;-0.31;95.48;98648.60;1793046;80;21801;-71
2021/03/08 05:35:08;;;;;;;;;;;;;;;-0.37;95.94;98649.41;1793451;78;20222;-72
2021/03/08 05:37:38;;;;;;;;;;;;;;;-0.49;97.35;98646.61;1793640;80;20485;-72
2021/03/08 05:40:10;;;;;;;;;;;;;;;-0.37;98.49;98650.73;1793501;80;20131;-72
2021/03/08 05:42:38;;;;;;;;;;;;;;;-0.41;98.21;98644.78;1792035;78;20202;-72
2021/03/08 05:45:09;;;;;;;;;;;;;;;-0.47;98.37;98650.34;1767637;80;22510;-72
2021/03/08 05:48:02;;;;;;;;;;;;;;;-0.28;97.16;98653.45;1755463;80;20499;-72
2021/03/08 05:50:44;;;;;;;;;;;;;;;-0.35;97.79;98650.02;1774223;81;20144;-74
2021/03/08 05:53:45;;;;;;;;;;;;;;;-0.33;97.14;98652.46;1715026;83;20266;-72
2021/03/08 05:56:36;;;;;;;;;;;;;;;-0.24;97.08;98664.42;1715005;83;20152;-72
2021/03/08 05:59:26;;;;;;;;;;;;;;;-0.21;98.46;98666.64;1714642;83;21284;-73
2021/03/08 06:02:23;;;;;;;;;;;;;;;-0.29;97.87;98674.27;1714800;83;20280;-73
2021/03/08 06:05:11;;;;;;;;;;;;;;;-0.20;97.61;98676.68;1714952;83;20263;-71
2021/03/08 06:08:03;;;;;;;;;;;;;;;-0.20;96.83;98681.95;1715028;83;20243;-72
2021/03/08 06:10:33;;;;;;;;;;;;;;;-0.17;94.64;98689.45;1710627;83;20240;-73
2021/03/08 06:13:07;;;;;;;;;;;;;;;-0.07;94.55;98699.91;1710735;84;21444;-73
2021/03/08 06:15:36;;;;;;;;;;;;;;;-0.12;93.94;98697.55;1711496;84;20242;-74
2021/03/08 06:18:06;;;;;;;;;;;;;;;-0.20;93.68;98698.58;1711467;84;20323;-73
2021/03/08 06:20:34;;;;;;;;;;;;;;;-0.07;93.38;98694.62;1711581;84;20268;-72
2021/03/08 06:23:02;;;;;;;;;;;;;;;0.05;92.72;98714.59;1711556;84;20239;-73
2021/03/08 06:25:30;;;;;;;;;;;;;;;-0.09;93.33;98714.31;1711639;84;22664;-71
2021/03/08 06:28:00;;;;;;;;;;;;;;;-0.01;87.77;98722.00;1711684;84;20346;-72
2021/03/08 06:30:28;;;;;;;;;;;;;;;-0.04;87.21;98719.78;1741153;81;20239;-72
2021/03/08 06:32:56;;;;;;;;;;;;;;;0.10;88.21;98723.19;1773430;81;20223;-72
2021/03/08 06:35:24;;;;;;;;;;;;;;;0.13;86.06;98733.36;1773290;81;20239;-72
2021/03/08 06:37:52;;;;;;;;;;;;;;;0.11;85.12;98729.59;1773178;81;22646;-73
2021/03/08 06:40:22;;;;;;;;;;;;;;;0.14;86.21;98729.17;1771774;80;20271;-73
2021/03/08 06:42:51;;;;;;;;;;;;;;;0.39;87.01;98721.90;1768490;80;20259;-72
2021/03/08 06:45:22;;;;;;;;;;;;;;;0.29;86.32;98731.57;1757496;80;21052;-73
2021/03/08 06:47:50;;;;;;;;;;;;;;;0.14;83.28;98717.30;1760915;80;20439;-74
2021/03/08 06:50:18;;;;;;;;;;;;;;;-0.11;79.89;98716.34;1758596;80;21144;-73
2021/03/08 06:52:47;;;;;;;;;;;;;;;0.17;80.21;98718.23;1751555;80;20219;-72
2021/03/08 06:55:22;;;;;;;;;;;;;;;0.26;81.76;98720.63;1771769;80;20164;-72
2021/03/08 06:57:51;;;;;;;;;;;;;;;0.23;79.61;98727.13;1774187;80;20613;-73
2021/03/08 07:00:20;;;;;;;;;;;;;;;0.29;79.12;98742.64;1770971;80;20250;-74
2021/03/08 07:02:52;;;;;;;;;;;;;;;0.19;80.20;98737.80;1775960;80;21202;-73
2021/03/08 07:05:44;;;;;;;;;;;;;;;0.45;80.19;98742.72;1746690;80;20281;-72
2021/03/08 07:08:15;;;;;;;;;;;;;;;0.29;77.60;98751.37;1743857;80;20286;-73
2021/03/08 07:10:43;;;;;;;;;;;;;;;0.46;76.91;98747.77;1722175;81;20296;-73
2021/03/08 07:13:16;;;;;;;;;;;;;;;0.82;75.27;98741.95;1760714;81;20223;-72
2021/03/08 07:15:58;;;;;;;;;;;;;;;0.58;74.56;98736.86;1762550;80;21454;-73
2021/03/08 07:18:37;;;;;;;;;;;;;;;0.45;72.01;98740.08;1761293;80;20609;-74
2021/03/08 07:21:21;;;;;;;;;;;;;;;0.39;72.14;98748.30;1763430;80;21215;-73
2021/03/08 07:23:54;;;;;;;;;;;;;;;0.64;72.15;98757.17;1759281;81;20208;-74
2021/03/08 07:26:28;;;;;;;;;;;;;;;0.49;72.01;98747.86;1760648;81;20220;-73
2021/03/08 07:29:13;;;;;;;;;;;;;;;0.79;72.95;98750.83;1769531;80;22231;-74
2021/03/08 07:31:49;;;;;;;;;;;;;;;0.62;72.30;98744.68;1766260;80;20273;-74
2021/03/08 07:34:25;;;;;;;;;;;;;;;0.78;70.81;98757.91;1756448;80;20335;-73
2021/03/08 07:37:01;;;;;;;;;;;;;;;0.70;71.65;98761.31;1740585;82;20329;-75
2021/03/08 07:39:37;;;;;;;;;;;;;;;0.97;69.83;98758.85;1762058;81;20241;-73
2021/03/08 07:42:10;;;;;;;;;;;;;;;0.76;71.14;98756.50;1726043;82;21286;-74
2021/03/08 07:44:50;;;;;;;;;;;;;;;0.85;70.36;98760.02;1737526;82;20179;-74
2021/03/08 07:47:21;;;;;;;;;;;;;;;0.80;68.44;98769.09;1730127;83;20267;-73
2021/03/08 07:49:51;;;;;;;;;;;;;;;0.74;70.73;98773.91;1746364;81;20287;-76
2021/03/08 07:52:30;;;;;;;;;;;;;;;0.50;71.43;98757.43;1760886;80;20564;-73
2021/03/08 07:55:02;;;;;;;;;;;;;;;0.66;72.10;98766.19;1750326;80;21968;-73
2021/03/08 07:57:34;;;;;;;;;;;;;;;1.02;72.30;98768.28;1760596;80;20528;-73
2021/03/08 08:00:07;;;;;;;;;;;;;;;1.52;71.27;98760.99;1754654;80;20598;-73
2021/03/08 08:02:36;;;;;;;;;;;;;;;1.62;68.29;98757.87;1767146;80;20282;-72
2021/03/08 08:05:07;;;;;;;;;;;;;;;1.41;67.30;98753.21;1769438;80;20223;-73
2021/03/08 08:07:42;;;;;;;;;;;;;;;1.35;68.54;98759.86;1803113;78;22269;-72
2021/03/08 08:10:15;;;;;;;;;;;;;;;1.19;67.73;98765.16;1823799;78;20139;-72
2021/03/08 08:12:55;;;;;;;;;;;;;;;1.38;67.63;98764.23;1824893;78;20207;-73
2021/03/08 08:15:22;;;;;;;;;;;;;;;1.21;67.18;98765.23;1822867;78;20574;-71
2021/03/08 08:17:54;;;;;;;;;;;;;;;1.64;65.29;98765.05;1804106;78;20328;-72
2021/03/08 08:20:25;;;;;;;;;;;;;;;1.26;61.41;98772.02;1823916;78;21457;-74
2021/03/08 08:23:05;;;;;;;;;;;;;;;1.20;62.02;98768.92;1751124;81;20767;-73
2021/03/08 08:25:39;;;;;;;;;;;;;;;1.57;61.24;98769.09;1743302;81;20624;-73
2021/03/08 08:28:07;;;;;;;;;;;;;;;1.72;59.97;98764.80;1723272;83;20239;-73
2021/03/08 08:30:45;;;;;;;;;;;;;;;1.60;61.07;98769.17;1755941;81;20243;-72
2021/03/08 08:33:18;;;;;;;;;;;;;;;1.62;61.81;98760.00;1753338;81;21141;-73
2021/03/08 08:35:47;;;;;;;;;;;;;;;2.03;59.98;98767.08;1753187;81;20238;-72
2021/03/08 08:38:20;;;;;;;;;;;;;;;1.98;57.79;98769.57;1728848;81;20348;-73
2021/03/08 08:40:49;;;;;;;;;;;;;;;2.30;58.42;98766.31;1730956;82;20262;-72
2021/03/08 08:43:22;;;;;;;;;;;;;;;2.08;57.75;98758.80;1753633;81;20249;-73
2021/03/08 08:45:52;;;;;;;;;;;;;;;2.04;59.29;98762.91;1738724;81;22094;-73
2021/03/08 08:48:21;;;;;;;;;;;;;;;1.92;56.32;98770.73;1717870;81;20310;-72
2021/03/08 08:50:53;;;;;;;;;;;;;;;1.97;55.91;98761.34;1734385;80;20288;-74
2021/03/08 08:53:34;;;;;;;;;;;;;;;2.29;52.78;98771.33;1752436;80;20320;-72
2021/03/08 09:07:29;;;;;;;;;;;;;;;2.95;55.29;98767.13;1824835;77;20201;-74
2021/03/08 09:23:35;;;;;;;;;;;;;;;3.41;49.16;98773.14;1764831;79;20215;-74
2021/03/08 09:26:11;;;;;;;;;;;;;;;3.54;48.04;98776.63;1734735;81;20205;-72
2021/03/08 09:28:49;;;;;;;;;;;;;;;3.27;48.91;98782.83;1732300;82;22224;-72
2021/03/08 09:31:31;;;;;;;;;;;;;;;3.57;49.02;98775.64;1729429;82;20563;-72
2021/03/08 09:34:06;;;;;;;;;;;;;;;3.56;48.84;98755.47;1734578;82;20153;-72
2021/03/08 09:36:42;;;;;;;;;;;;;;;3.19;49.50;98769.38;1731438;82;20177;-72
2021/03/08 09:39:09;;;;;;;;;;;;;;;2.73;49.26;98776.86;1734867;82;20499;-73
2021/03/08 09:41:40;;;;;;;;;;;;;;;2.69;51.99;98798.20;1736461;82;22122;-71
2021/03/08 09:44:43;;;;;;;;;;;;;;;2.67;55.12;98778.25;1669014;85;20569;-73
2021/03/08 09:47:16;;;;;;;;;;;;;;;3.17;52.38;98778.87;1663677;86;20241;-72
2021/03/08 09:49:49;;;;;;;;;;;;;;;3.16;53.42;98787.87;1667391;85;20557;-73
2021/03/08 09:52:31;;;;;;;;;;;;;;;3.19;52.75;98783.44;1669646;86;20237;-72
2021/03/08 09:55:07;;;;;;;;;;;;;;;3.21;53.13;98789.33;1669233;85;21219;-72
2021/03/08 09:57:43;;;;;;;;;;;;;;;3.28;49.13;98793.72;1677130;85;20288;-71
2021/03/08 10:00:16;;;;;;;;;;;;;;;3.27;49.43;98785.48;1678686;85;20324;-72
2021/03/08 10:02:54;;;;;;;;;;;;;;;3.33;48.91;98780.59;1681514;85;20260;-76
2021/03/08 10:05:26;;;;;;;;;;;;;;;3.58;46.43;98756.05;1669724;85;20667;-72
2021/03/08 10:08:07;;;;;;;;;;;;;;;3.77;46.40;98778.52;1677308;84;21016;-72
2021/03/08 10:10:49;;;;;;;;;;;;;;;3.59;45.29;98783.39;1678379;84;20246;-71
2021/03/08 10:13:18;;;;;;;;;;;;;;;3.31;45.51;98790.64;1680096;85;20245;-73
2021/03/08 10:15:54;;;;;;;;;;;;;;;2.72;48.72;98790.31;1701640;84;20280;-71
2021/03/08 10:18:29;;;;;;;;;;;;;;;3.09;48.40;98791.13;1716229;83;20255;-73
2021/03/08 10:21:01;;;;;;;;;;;;;;;3.04;49.28;98788.33;1708675;82;21356;-72
2021/03/08 10:23:37;;;;;;;;;;;;;;;2.76;48.40;98792.31;1703210;84;20503;-73
2021/03/08 10:26:16;;;;;;;;;;;;;;;3.39;46.90;98785.01;1714772;83;20580;-73
2021/03/08 10:28:52;;;;;;;;;;;;;;;3.34;47.28;98796.81;1709967;83;20503;-72
2021/03/08 10:31:22;;;;;;;;;;;;;;;3.09;47.31;98793.77;1708545;83;20236;-73
2021/03/08 10:33:55;;;;;;;;;;;;;;;2.70;49.61;98795.86;1666770;83;22112;-72
2021/03/08 10:36:25;;;;;;;;;;;;;;;2.71;49.67;98798.80;1710483;83;20164;-72
2021/03/08 10:38:58;;;;;;;;;;;;;;;2.95;47.80;98785.69;1718474;83;20310;-74
2021/03/08 10:41:28;;;;;;;;;;;;;;;3.44;48.09;98790.44;1713055;82;20238;-73
2021/03/08 10:43:57;;;;;;;;;;;;;;;3.48;47.56;98800.08;1715223;82;20232;-73
2021/03/08 10:46:31;;;;;;;;;;;;;;;2.83;47.31;98790.92;1708099;83;21375;-74
2021/03/08 10:49:05;;;;;;;;;;;;;;;2.86;48.68;98793.12;1707571;83;20203;-72
2021/03/08 10:51:34;;;;;;;;;;;;;;;2.71;49.46;98796.14;1712165;82;20145;-73
2021/03/08 10:54:11;;;;;;;;;;;;;;;2.79;50.61;98797.68;1712404;83;20298;-72
2021/03/08 10:56:43;;;;;;;;;;;;;;;2.71;51.60;98797.47;1713563;82;20519;-72
2021/03/08 10:59:22;;;;;;;;;;;;;;;2.41;52.23;98793.94;1683082;84;21382;-73
2021/03/08 11:02:05;;;;;;;;;;;;;;;2.58;52.96;98798.42;1670718;83;20296;-73
2021/03/08 11:04:34;;;;;;;;;;;;;;;2.74;52.40;98793.07;1710786;83;20244;-72
2021/03/08 11:07:03;;;;;;;;;;;;;;;3.51;50.10;98799.12;1707699;83;20184;-73
2021/03/08 11:09:36;;;;;;;;;;;;;;;3.22;51.42;98797.56;1710226;82;20284;-73
2021/03/08 11:12:07;;;;;;;;;;;;;;;2.90;51.73;98791.65;1711879;83;21268;-73
2021/03/08 11:14:54;;;;;;;;;;;;;;;2.60;51.56;98786.30;1686762;84;20171;-73
2021/03/08 11:17:40;;;;;;;;;;;;;;;2.50;52.49;98787.30;1708650;83;20507;-74
2021/03/08 11:20:19;;;;;;;;;;;;;;;2.38;52.25;98779.78;1708422;83;20156;-74
2021/03/08 11:23:03;;;;;;;;;;;;;;;2.46;53.69;98783.48;1711229;82;20287;-73
2021/03/08 11:25:45;;;;;;;;;;;;;;;2.02;53.51;98780.03;1711674;83;21507;-72
2021/03/08 11:28:17;;;;;;;;;;;;;;;2.15;55.05;98787.84;1707126;82;20211;-71
2021/03/08 11:30:49;;;;;;;;;;;;;;;1.83;54.50;98790.55;1712880;83;20335;-72
2021/03/08 11:33:18;;;;;;;;;;;;;;;1.58;55.07;98769.89;1702085;83;20377;-73
2021/03/08 11:35:50;;;;;;;;;;;;;;;1.53;55.62;98779.79;1700814;84;20159;-74
2021/03/08 11:38:25;;;;;;;;;;;;;;;1.26;55.94;98786.56;1699815;84;22170;-73
2021/03/08 11:40:57;;;;;;;;;;;;;;;1.45;58.68;98782.19;1701373;84;20116;-74
2021/03/08 11:43:25;;;;;;;;;;;;;;;1.38;60.63;98758.94;1664212;84;20239;-73
2021/03/08 11:45:56;;;;;;;;;;;;;;;1.44;62.44;98783.19;1692490;83;21185;-72
2021/03/08 11:48:31;;;;;;;;;;;;;;;1.92;61.67;98784.49;1701397;83;20231;-75
2021/03/08 11:51:00;;;;;;;;;;;;;;;1.62;61.07;98766.61;1698504;84;20857;-73
2021/03/08 11:53:29;;;;;;;;;;;;;;;2.01;59.59;98783.69;1699937;84;20147;-73
2021/03/08 11:55:59;;;;;;;;;;;;;;;2.05;60.79;98787.02;1702791;84;20573;-70
2021/03/08 11:58:28;;;;;;;;;;;;;;;1.76;60.18;98765.98;1696599;84;20184;-73
2021/03/08 12:01:00;;;;;;;;;;;;;;;1.92;60.92;98785.30;1694409;84;20243;-74
2021/03/08 12:03:37;;;;;;;;;;;;;;;1.90;60.32;98788.66;1703334;82;21424;-74
2021/03/08 12:06:08;;;;;;;;;;;;;;;1.53;60.82;98780.31;1699015;83;20236;-71
2021/03/08 12:08:41;;;;;;;;;;;;;;;1.35;65.55;98801.67;1703746;83;20145;-72
2021/03/08 12:11:20;;;;;;;;;;;;;;;1.56;67.10;98800.52;1701282;83;20267;-71
2021/03/08 12:13:53;;;;;;;;;;;;;;;1.34;68.48;98794.75;1700990;83;20228;-73
2021/03/08 12:16:24;;;;;;;;;;;;;;;1.44;66.40;98790.31;1675930;84;20351;-72
2021/03/08 12:18:58;;;;;;;;;;;;;;;1.62;66.10;98802.32;1696132;83;20310;-72
2021/03/08 12:21:29;;;;;;;;;;;;;;;1.74;64.52;98799.80;1697564;83;20145;-73
2021/03/08 12:23:58;;;;;;;;;;;;;;;1.96;64.91;98794.95;1702005;83;20445;-73
2021/03/08 12:26:26;;;;;;;;;;;;;;;1.99;64.05;98802.45;1679736;84;20518;-73
2021/03/08 12:28:56;;;;;;;;;;;;;;;1.93;63.78;98803.30;1694692;83;21855;-72
2021/03/08 12:31:25;;;;;;;;;;;;;;;1.98;61.62;98796.04;1702153;83;20234;-73
2021/03/08 12:33:53;;;;;;;;;;;;;;;2.16;62.22;98796.10;1701605;83;20299;-73
2021/03/08 12:36:24;;;;;;;;;;;;;;;2.62;59.87;98809.91;1695916;83;20243;-73
2021/03/08 12:39:09;;;;;;;;;;;;;;;2.57;59.77;98806.58;1573012;89;20278;-73
2021/03/08 12:41:40;;;;;;;;;;;;;;;2.49;56.81;98806.36;1566908;90;21415;-73
2021/03/08 12:44:10;;;;;;;;;;;;;;;2.40;56.47;98806.38;1589634;88;20324;-72
2021/03/08 12:46:49;;;;;;;;;;;;;;;2.42;56.03;98807.46;1570640;90;20340;-73
2021/03/08 12:49:20;;;;;;;;;;;;;;;2.32;56.55;98819.36;1570011;90;20546;-75
2021/03/08 12:52:10;;;;;;;;;;;;;;;2.29;54.65;98811.86;1524256;91;20231;-74
2021/03/08 13:05:37;;;;;;;;;;;;;;;1.54;66.79;98832.98;1823125;77;20199;-72
2021/03/08 13:08:16;;;;;;;;;;;;;;;1.31;69.83;98838.00;1789083;80;20293;-73
2021/03/08 13:10:44;;;;;;;;;;;;;;;1.10;74.11;98833.30;1788733;80;22299;-74
2021/03/08 13:13:21;;;;;;;;;;;;;;;1.30;75.47;98839.84;1725083;80;20163;-74
2021/03/08 13:15:55;;;;;;;;;;;;;;;0.93;77.71;98830.34;1788699;80;20210;-73
2021/03/08 13:18:42;;;;;;;;;;;;;;;0.79;86.24;98845.92;1789084;80;20171;-73
2021/03/08 13:34:50;;;;;;;;;;;;;;;0.45;99.99;98860.22;1729388;79;20154;-72
2021/03/08 13:37:21;;;;;;;;;;;;;;;0.67;97.43;98857.63;1731355;81;21202;-74
2021/03/08 13:39:50;;;;;;;;;;;;;;;0.52;96.32;98847.30;1732213;81;20190;-73
2021/03/08 13:42:29;;;;;;;;;;;;;;;1.28;92.13;98867.00;1722438;81;20852;-73
2021/03/08 13:45:01;;;;;;;;;;;;;;;1.85;86.31;98865.25;1730344;81;20325;-72
2021/03/08 13:47:33;;;;;;;;;;;;;;;2.44;76.67;98849.11;1732056;81;20155;-72
2021/03/08 13:50:06;;;;;;;;;;;;;;;2.88;71.18;98867.92;1731249;81;22122;-72
2021/03/08 13:52:41;;;;;;;;;;;;;;;2.69;72.22;98863.13;1730197;81;20254;-72
2021/03/08 13:55:14;;;;;;;;;;;;;;;1.92;72.10;98860.72;1700728;82;20356;-73
2021/03/08 13:57:59;;;;;;;;;;;;;;;1.85;68.96;98865.77;1730256;81;20450;-73
2021/03/08 14:00:30;;;;;;;;;;;;;;;1.75;67.03;98864.11;1725862;81;20250;-73
2021/03/08 14:03:16;;;;;;;;;;;;;;;1.55;67.83;98861.59;1729504;81;22265;-74
2021/03/08 14:05:51;;;;;;;;;;;;;;;1.21;66.70;98855.64;1731570;81;20266;-72
2021/03/08 14:08:22;;;;;;;;;;;;;;;1.44;67.77;98863.05;1729403;81;20322;-74
2021/03/08 14:11:01;;;;;;;;;;;;;;;1.77;67.51;98862.06;1723747;81;20383;-73